Etusivu
METAR-TAF:

METAR-TAF

Lentoasemat :

Kemi-Tornion lentoasema

Kemi, Suomi

Leveyspiiri: 65-47N, Pituuspiiri: 024-35E, korkeus merenpinnasta: 15 m

Tämänhetkinen sää

Tämä raportti tehtiin 29 minuuttia sitten, kello 18.20 UTC
Tuuli 1 kn eri suunnista
Lämpötila -2°C
Kosteus 100%
Ilmanpaine 1014 hPa
Näkyvyys 10 km tai enemmän
Hajonneita pilviä 4200 ft:n korkeudessa

METAR: EFKE 191820Z VRB01KT 9999 BKN042 M02/M02 Q1014

Aika: 20:49 (18:49 UTC)

Sääennuste

Tämä raportti tehtiin 1 tunti ja 19 minuuttia sitten, kello 17.30 UTC
Ennuste voimassa 19. päivästä klo 18 UTC - 19. päivään klo 24 UTC
Tuuli 1 kn eri suunnista
Näkyvyys 10 km tai enemmän
Hajanaisia pilviä 3000 ft:n korkeudessa

TAF: EFKE 191730Z 1918/1924 VRB01KT 9999 SCT030

Säähavainnot ja -ennusteet yli 4000 lentoasemalta (METAR- ja TAF-raportit).

Käytössä olevat sääasemat on merkitty karttaan keltaisilla ja punaisilla pisteillä.

Aseta hiiri pisteen päälle nähdäksesi sääaseman nimen.

Klikkaa sitten nähdäksesi säähavainnot ja -ennusteet.

Kartan vaihtaminen: klikkaa mustalla rastilla varustettuja vihreitä pisteitä, niin voit zoomata sisään; viivalla varustettua vihreää pistettä, niin voit zoomata ulos tai vihreitä nuolia, niin pääset viereisille kartoille.


METAR-TAF: